Time;durP1;ratioP1;P1;durP2;ratioP2;P2;SDS_P1;SDS_P2;PMS_P1;PMS_P2;Temp;Humidity;BMP_temperature;BMP_pressure;BME280_temperature;BME280_humidity;BME280_pressure;Samples;Min_cycle;Max_cycle;Signal;HPM_P1;HPM_P2
2024/04/09 00:00:29;;;;;;;4.00;3.40;;;;;;;15.51;61.75;99395.84;217424;1257;140088;-71
2024/04/09 00:05:39;;;;;;;4.50;4.10;;;;;;;15.40;62.28;99393.17;217377;1258;140163;-71
2024/04/09 00:10:43;;;;;;;4.50;3.30;;;;;;;15.33;62.59;99389.02;217279;1260;139585;-69
2024/04/09 00:15:44;;;;;;;3.20;2.90;;;;;;;15.33;62.86;99385.52;217392;1260;140320;-71
2024/04/09 00:20:50;;;;;;;5.20;4.10;;;;;;;15.34;63.03;99382.08;218245;1257;140080;-71
2024/04/09 00:25:53;;;;;;;3.10;2.70;;;;;;;15.35;63.31;99379.17;217231;1257;139636;-71
2024/04/09 00:30:55;;;;;;;3.60;3.20;;;;;;;15.39;63.47;99375.09;217842;1257;141130;-71
2024/04/09 00:35:57;;;;;;;4.00;3.10;;;;;;;15.42;63.44;99373.57;217637;1259;140628;-71
2024/04/09 00:40:59;;;;;;;3.30;3.00;;;;;;;15.37;63.54;99370.09;217604;1257;140260;-69
2024/04/09 00:46:01;;;;;;;6.30;2.40;;;;;;;15.36;63.59;99370.09;218171;1256;140637;-69
2024/04/09 00:51:09;;;;;;;4.20;3.80;;;;;;;15.35;63.63;99366.98;217583;1260;139723;-70
2024/04/09 00:56:12;;;;;;;3.20;3.00;;;;;;;15.30;63.56;99368.57;217773;1257;140982;-71
2024/04/09 01:01:16;;;;;;;5.50;3.30;;;;;;;15.25;63.76;99368.76;217708;1257;139916;-71
2024/04/09 01:06:18;;;;;;;3.30;2.80;;;;;;;15.20;63.87;99368.17;217472;1257;150600;-73
2024/04/09 01:11:20;;;;;;;7.60;3.00;;;;;;;15.14;63.93;99361.33;217426;1257;141115;-74
2024/04/09 01:16:22;;;;;;;5.90;3.10;;;;;;;15.08;64.10;99362.95;217870;1260;140859;-73
2024/04/09 01:21:24;;;;;;;4.10;3.00;;;;;;;14.98;64.11;99368.66;217314;1259;140798;-73
2024/04/09 01:26:27;;;;;;;3.40;3.10;;;;;;;14.92;64.19;99365.63;217432;1257;141418;-73
2024/04/09 01:31:29;;;;;;;4.20;3.00;;;;;;;14.87;64.40;99363.17;217577;1257;140501;-73
2024/04/09 01:36:34;;;;;;;5.10;3.00;;;;;;;14.80;64.54;99355.39;217579;1257;139833;-73
2024/04/09 01:41:36;;;;;;;7.50;3.20;;;;;;;14.75;64.71;99356.21;217636;1259;140507;-73
2024/04/09 01:46:38;;;;;;;6.40;3.00;;;;;;;14.70;64.80;99359.34;217541;1257;139462;-72
2024/04/09 01:51:40;;;;;;;2.90;2.70;;;;;;;14.65;64.93;99362.58;217628;1259;141440;-74
2024/04/09 01:56:43;;;;;;;5.30;3.40;;;;;;;14.63;65.06;99363.64;217663;1259;140432;-73
2024/04/09 02:01:46;;;;;;;3.10;2.70;;;;;;;14.56;65.17;99361.23;217725;1257;140374;-73
2024/04/09 02:06:48;;;;;;;5.80;3.00;;;;;;;14.48;65.20;99364.08;217366;1257;140825;-73
2024/04/09 02:11:51;;;;;;;3.70;3.40;;;;;;;14.43;65.36;99365.73;217243;1257;140567;-70
2024/04/09 02:16:55;;;;;;;3.80;3.10;;;;;;;14.38;65.68;99365.08;217345;1257;139726;-71
2024/04/09 02:21:57;;;;;;;3.90;3.50;;;;;;;14.37;65.87;99366.14;217471;1259;141420;-70
2024/04/09 02:26:59;;;;;;;3.30;3.00;;;;;;;14.38;65.97;99365.80;217092;1260;140329;-72
2024/04/09 02:32:02;;;;;;;4.50;3.40;;;;;;;14.38;65.95;99365.33;217576;1256;140080;-70
2024/04/09 02:37:05;;;;;;;6.10;3.00;;;;;;;14.38;65.99;99364.58;217552;1256;140852;-71
2024/04/09 02:42:13;;;;;;;3.50;3.20;;;;;;;14.37;66.01;99365.77;217482;1259;141151;-69
2024/04/09 02:47:43;;;;;;;3.70;3.40;;;;;;;14.29;65.91;99372.69;217647;1256;140226;-71
2024/04/09 02:52:49;;;;;;;8.30;3.60;;;;;;;14.18;66.23;99370.10;217542;1256;139477;-70
2024/04/09 02:57:51;;;;;;;7.60;4.20;;;;;;;14.09;66.35;99368.27;218377;1255;141214;-71
2024/04/09 03:02:54;;;;;;;5.40;4.10;;;;;;;14.03;66.58;99367.42;220470;1257;140217;-71
2024/04/09 03:07:56;;;;;;;4.40;3.90;;;;;;;13.98;66.80;99363.60;219139;1257;139765;-70
2024/04/09 03:12:58;;;;;;;4.70;4.20;;;;;;;13.96;66.69;99362.84;218134;1256;142983;-69
2024/04/09 03:18:00;;;;;;;4.70;3.20;;;;;;;13.90;66.71;99355.96;217747;1256;141230;-71
2024/04/09 03:23:02;;;;;;;7.20;4.60;;;;;;;13.82;66.76;99359.53;217210;1259;140692;-71
2024/04/09 03:28:04;;;;;;;6.60;2.80;;;;;;;13.74;66.94;99363.54;217559;1259;140260;-70
2024/04/09 03:33:06;;;;;;;5.20;4.20;;;;;;;13.70;67.17;99363.49;217483;1257;140680;-72
2024/04/09 03:38:08;;;;;;;8.90;3.60;;;;;;;13.67;67.24;99365.73;218484;1257;139557;-69
2024/04/09 03:43:11;;;;;;;15.40;3.60;;;;;;;13.63;67.26;99359.88;217884;1257;141016;-73
2024/04/09 03:48:13;;;;;;;5.30;4.30;;;;;;;13.63;67.39;99357.14;217381;1255;141511;-72
2024/04/09 03:53:15;;;;;;;4.90;4.50;;;;;;;13.61;67.29;99356.80;217720;1256;141136;-71
2024/04/09 03:58:17;;;;;;;5.50;4.90;;;;;;;13.60;67.49;99357.66;217707;1257;140613;-72
2024/04/09 04:03:19;;;;;;;7.00;4.60;;;;;;;13.58;67.48;99359.16;217657;1259;139899;-70
2024/04/09 04:08:28;;;;;;;12.40;4.40;;;;;;;13.59;67.45;99361.58;217411;1259;140517;-71
2024/04/09 04:13:31;;;;;;;3.90;3.20;;;;;;;13.58;67.45;99361.77;217648;1257;139996;-71
2024/04/09 04:18:35;;;;;;;4.40;4.00;;;;;;;13.57;67.59;99360.86;217449;1259;140094;-71
2024/04/09 04:23:36;;;;;;;4.60;4.20;;;;;;;13.60;67.79;99361.30;217764;1257;140577;-71
2024/04/09 04:28:40;;;;;;;6.30;4.30;;;;;;;13.67;67.75;99362.09;217219;1257;139550;-74
2024/04/09 04:33:43;;;;;;;5.70;5.10;;;;;;;13.75;67.68;99360.07;217221;1257;140186;-73
2024/04/09 04:38:47;;;;;;;5.20;4.00;;;;;;;13.88;67.83;99359.51;217294;1260;140414;-73
2024/04/09 04:43:50;;;;;;;4.80;4.30;;;;;;;14.03;67.68;99364.89;218886;1258;140541;-71
2024/04/09 04:48:52;;;;;;;5.60;4.50;;;;;;;14.16;67.45;99360.71;217325;1257;140775;-72
2024/04/09 04:53:54;;;;;;;7.40;4.70;;;;;;;14.26;67.46;99357.98;217269;1259;140056;-72
2024/04/09 04:58:56;;;;;;;4.20;3.40;;;;;;;14.37;67.18;99356.33;217516;1258;140385;-71
2024/04/09 05:03:58;;;;;;;6.70;4.30;;;;;;;14.50;67.11;99354.52;217460;1259;140610;-75
2024/04/09 05:09:12;;;;;;;7.00;5.10;;;;;;;14.65;66.93;99352.10;219029;1257;140635;-73
2024/04/09 05:14:18;;;;;;;4.60;3.80;;;;;;;14.87;66.63;99347.28;219084;1260;140218;-73
2024/04/09 05:19:19;;;;;;;9.50;3.90;;;;;;;15.13;66.32;99340.48;217707;1257;139670;-73
2024/04/09 05:24:23;;;;;;;11.60;4.90;;;;;;;15.44;66.17;99335.80;217975;1257;139912;-71
2024/04/09 05:29:25;;;;;;;4.30;3.40;;;;;;;15.75;65.82;99341.79;217339;1257;141580;-71
2024/04/09 05:34:26;;;;;;;9.70;4.00;;;;;;;16.00;65.29;99344.73;217220;1260;140278;-70
2024/04/09 05:39:29;;;;;;;8.10;4.50;;;;;;;16.27;64.82;99343.67;217403;1260;140852;-71
2024/04/09 05:44:30;;;;;;;6.80;4.50;;;;;;;16.49;64.51;99342.58;217786;1257;140920;-72
2024/04/09 05:49:33;;;;;;;5.00;3.70;;;;;;;16.66;64.28;99348.58;217734;1257;141616;-72
2024/04/09 05:54:39;;;;;;;4.80;4.00;;;;;;;16.87;63.96;99350.73;217513;1258;140804;-71
2024/04/09 05:59:41;;;;;;;5.80;4.70;;;;;;;17.15;63.59;99351.77;217427;1258;140155;-69
2024/04/09 06:04:43;;;;;;;8.90;5.00;;;;;;;17.34;62.79;99349.46;217782;1256;140914;-70
2024/04/09 06:09:46;;;;;;;9.90;5.10;;;;;;;17.55;62.59;99348.10;217225;1257;140317;-70
2024/04/09 06:14:47;;;;;;;9.40;4.90;;;;;;;17.83;62.21;99342.95;217350;1258;139417;-69
2024/04/09 06:19:49;;;;;;;6.60;4.20;;;;;;;18.09;61.54;99343.59;217894;1259;139746;-70
2024/04/09 06:24:50;;;;;;;4.00;3.70;;;;;;;18.34;61.18;99351.27;217550;1257;140418;-70
2024/04/09 06:29:51;;;;;;;7.90;4.50;;;;;;;18.47;60.39;99352.30;217256;1257;140446;-70
2024/04/09 06:34:54;;;;;;;10.10;3.90;;;;;;;18.49;60.02;99348.86;217581;1257;139907;-70
2024/04/09 06:39:56;;;;;;;5.20;3.20;;;;;;;18.71;59.87;99349.70;218089;1257;140550;-71
2024/04/09 06:44:59;;;;;;;5.90;3.50;;;;;;;19.04;59.55;99346.65;218539;1257;139707;-73
2024/04/09 06:50:04;;;;;;;7.00;3.60;;;;;;;19.55;58.77;99348.11;217295;1257;139862;-71
2024/04/09 06:55:07;;;;;;;7.50;3.80;;;;;;;20.16;58.16;99347.51;217831;1259;140564;-71
2024/04/09 07:00:09;;;;;;;4.40;3.80;;;;;;;20.64;57.66;99346.61;218307;1259;139374;-71
2024/04/09 07:05:11;;;;;;;8.40;3.30;;;;;;;21.07;57.08;99345.95;218543;1262;140938;-70
2024/04/09 07:10:13;;;;;;;6.70;3.70;;;;;;;21.59;56.21;99347.77;217391;1257;139407;-71
2024/04/09 07:15:16;;;;;;;4.80;3.40;;;;;;;22.25;55.70;99349.38;217419;1257;140437;-70
2024/04/09 07:20:18;;;;;;;6.80;4.00;;;;;;;22.96;54.62;99350.70;217387;1258;139638;-70
2024/04/09 07:25:20;;;;;;;3.60;2.70;;;;;;;23.67;53.90;99352.94;217691;1260;141546;-71
2024/04/09 07:30:22;;;;;;;3.20;2.90;;;;;;;24.26;52.94;99351.49;217788;1257;140678;-70
2024/04/09 07:35:23;;;;;;;6.50;3.00;;;;;;;24.62;51.80;99354.84;217580;1257;139787;-71
2024/04/09 07:40:25;;;;;;;5.90;3.50;;;;;;;24.81;50.77;99355.52;217613;1260;140028;-71
2024/04/09 07:45:26;;;;;;;5.10;3.60;;;;;;;25.00;50.23;99353.36;217457;1260;140432;-72
2024/04/09 07:50:28;;;;;;;5.10;3.60;;;;;;;25.24;49.93;99349.92;217298;1257;140054;-72
2024/04/09 07:55:30;;;;;;;3.70;2.90;;;;;;;25.30;49.37;99351.98;217708;1260;139870;-71
2024/04/09 08:00:33;;;;;;;6.60;3.30;;;;;;;25.24;48.55;99358.59;217571;1259;139833;-72
2024/04/09 08:05:36;;;;;;;5.50;3.30;;;;;;;25.29;48.49;99358.98;217393;1261;138691;-71
2024/04/09 08:10:38;;;;;;;6.20;3.20;;;;;;;25.34;48.08;99358.61;217358;1258;140544;-73
2024/04/09 08:15:40;;;;;;;4.10;2.70;;;;;;;25.37;47.62;99362.52;217501;1257;140256;-73
2024/04/09 08:20:44;;;;;;;5.80;3.40;;;;;;;25.49;47.60;99363.64;217551;1257;138990;-73
2024/04/09 08:25:46;;;;;;;6.80;3.80;;;;;;;25.51;46.79;99358.64;218037;1259;139267;-75
2024/04/09 08:30:50;;;;;;;5.60;3.20;;;;;;;25.57;47.46;99358.43;217804;1259;139480;-72
2024/04/09 08:35:52;;;;;;;3.90;2.00;;;;;;;25.81;47.15;99352.17;217426;1257;140183;-72
2024/04/09 08:40:57;;;;;;;3.90;2.30;;;;;;;25.94;46.97;99345.55;217321;1257;138905;-70
2024/04/09 08:45:59;;;;;;;3.30;2.20;;;;;;;26.01;46.46;99345.81;217357;1260;139959;-73
2024/04/09 08:51:03;;;;;;;2.10;2.00;;;;;;;26.10;46.06;99345.52;218266;1256;139747;-72
2024/04/09 08:56:06;;;;;;;2.70;2.20;;;;;;;26.17;44.85;99341.14;218476;1260;139484;-72
2024/04/09 09:01:07;;;;;;;7.40;2.50;;;;;;;26.14;44.19;99337.30;217854;1257;139891;-71
2024/04/09 09:06:09;;;;;;;10.50;2.50;;;;;;;26.20;44.10;99339.65;218517;1260;141724;-72
2024/04/09 09:11:21;;;;;;;9.10;2.40;;;;;;;26.36;44.09;99338.77;217547;1260;140153;-72
2024/04/09 09:16:23;;;;;;;2.80;2.30;;;;;;;26.48;43.74;99336.77;217555;1257;141029;-72
2024/04/09 09:21:25;;;;;;;5.90;2.20;;;;;;;26.63;43.86;99334.71;217595;1257;140180;-72
2024/04/09 09:26:27;;;;;;;4.40;2.70;;;;;;;26.71;42.89;99331.73;217688;1257;139029;-74
2024/04/09 09:31:39;;;;;;;3.70;2.70;;;;;;;26.72;42.89;99332.92;217785;1257;139685;-72
2024/04/09 09:36:41;;;;;;;3.30;2.10;;;;;;;26.83;42.84;99329.32;217726;1257;138926;-72
2024/04/09 09:41:43;;;;;;;4.20;2.30;;;;;;;26.98;42.57;99320.71;217624;1257;139844;-72
2024/04/09 09:46:48;;;;;;;3.70;1.60;;;;;;;27.10;42.48;99316.40;217554;1259;140154;-72
2024/04/09 09:51:51;;;;;;;4.80;2.70;;;;;;;27.16;41.81;99311.86;217508;1259;141015;-73
2024/04/09 09:57:01;;;;;;;2.60;2.40;;;;;;;27.21;41.74;99313.52;217435;1259;139175;-72
2024/04/09 10:02:05;;;;;;;7.40;2.70;;;;;;;27.30;41.75;99307.62;217550;1257;138749;-72
2024/04/09 10:07:07;;;;;;;5.20;2.40;;;;;;;27.41;41.46;99304.67;218528;1259;140897;-72
2024/04/09 10:12:40;;;;;;;7.40;3.00;;;;;;;27.40;41.06;99299.34;217485;1259;150651;-75
2024/04/09 10:17:49;;;;;;;6.10;2.40;;;;;;;27.47;41.42;99293.94;218358;1259;140461;-73
2024/04/09 10:22:52;;;;;;;5.20;2.20;;;;;;;27.63;41.46;99292.50;217683;1256;141757;-72
2024/04/09 10:28:02;;;;;;;3.20;2.90;;;;;;;27.67;41.27;99293.22;218223;1257;139558;-72
2024/04/09 10:33:06;;;;;;;2.80;2.10;;;;;;;27.69;40.94;99290.67;217619;1257;139320;-71
2024/04/09 10:38:08;;;;;;;10.30;2.50;;;;;;;27.75;41.03;99292.30;217610;1259;139605;-72
2024/04/09 10:43:10;;;;;;;2.90;2.70;;;;;;;27.83;40.99;99288.86;217871;1259;139450;-71
2024/04/09 10:48:14;;;;;;;3.30;1.90;;;;;;;27.95;40.54;99288.63;219168;1259;141820;-72
2024/04/09 10:53:16;;;;;;;3.20;2.50;;;;;;;27.92;40.10;99284.56;217530;1259;139049;-71
2024/04/09 10:58:18;;;;;;;1.90;1.80;;;;;;;27.96;39.72;99278.80;217504;1258;139418;-71
2024/04/09 11:03:21;;;;;;;2.70;2.50;;;;;;;28.04;40.11;99274.96;219457;1257;139336;-71
2024/04/09 11:08:28;;;;;;;3.60;2.20;;;;;;;28.00;39.80;99270.48;217446;1257;140203;-72
2024/04/09 11:13:31;;;;;;;3.10;2.70;;;;;;;28.06;39.87;99265.21;217839;1257;139272;-73
2024/04/09 11:18:32;;;;;;;4.90;2.20;;;;;;;28.02;39.63;99262.08;217247;1260;139157;-73
2024/04/09 11:23:35;;;;;;;4.00;2.30;;;;;;;27.93;39.45;99255.93;217892;1257;140523;-73
2024/04/09 11:28:37;;;;;;;3.90;2.40;;;;;;;27.78;39.31;99255.98;217289;1259;139237;-74
2024/04/09 11:33:39;;;;;;;3.00;2.00;;;;;;;27.77;39.12;99246.80;217642;1259;141066;-73
2024/04/09 11:38:41;;;;;;;2.80;1.70;;;;;;;27.63;38.25;99244.14;216995;1257;546252;-75
2024/04/09 11:43:42;;;;;;;2.90;1.90;;;;;;;27.51;38.55;99239.20;217595;1257;140032;-72
2024/04/09 11:48:44;;;;;;;2.30;2.10;;;;;;;27.53;39.02;99230.23;217640;1257;139817;-74
2024/04/09 11:53:46;;;;;;;4.00;2.70;;;;;;;27.60;39.02;99221.48;217533;1260;143259;-71
2024/04/09 11:58:48;;;;;;;2.60;2.40;;;;;;;27.59;39.09;99220.53;217623;1259;140515;-74
2024/04/09 12:03:49;;;;;;;2.20;2.10;;;;;;;27.64;39.19;99214.44;217525;1257;138883;-73
2024/04/09 12:08:53;;;;;;;2.70;1.90;;;;;;;27.61;39.19;99213.13;218062;1259;139382;-73
2024/04/09 12:13:54;;;;;;;4.00;2.50;;;;;;;27.65;39.24;99200.71;217380;1259;139649;-73
2024/04/09 12:18:56;;;;;;;3.30;2.30;;;;;;;27.81;39.54;99195.61;217592;1257;140137;-73
2024/04/09 12:23:57;;;;;;;4.50;2.80;;;;;;;27.97;39.43;99182.30;217307;1259;139144;-74
2024/04/09 12:28:59;;;;;;;6.10;2.30;;;;;;;28.08;39.00;99172.63;217594;1256;139734;-72
2024/04/09 12:34:01;;;;;;;2.40;2.20;;;;;;;28.28;39.07;99171.44;218485;1257;139848;-73
2024/04/09 12:39:03;;;;;;;2.20;2.10;;;;;;;28.35;38.49;99163.48;217498;1259;139304;-72
2024/04/09 12:44:04;;;;;;;2.20;2.00;;;;;;;28.39;38.26;99157.30;217496;1257;139292;-73
2024/04/09 12:49:05;;;;;;;2.50;1.90;;;;;;;28.40;38.48;99152.77;217477;1257;140366;-72
2024/04/09 12:54:07;;;;;;;2.50;2.30;;;;;;;28.35;38.33;99148.55;217534;1255;139628;-73
2024/04/09 12:59:09;;;;;;;2.40;2.20;;;;;;;28.38;38.21;99143.41;217311;1257;138961;-73
2024/04/09 13:04:10;;;;;;;3.20;1.90;;;;;;;28.40;38.30;99141.65;217668;1257;139319;-73
2024/04/09 13:09:14;;;;;;;4.00;2.10;;;;;;;28.45;37.91;99132.52;217283;1261;139906;-74
2024/04/09 13:14:16;;;;;;;2.70;2.40;;;;;;;28.34;37.53;99134.02;217338;1257;141086;-73
2024/04/09 13:19:19;;;;;;;6.50;2.50;;;;;;;28.19;37.25;99122.95;217253;1257;138804;-72
2024/04/09 13:24:21;;;;;;;2.70;1.90;;;;;;;28.20;37.57;99120.91;217343;1259;141078;-74
2024/04/09 13:29:23;;;;;;;1.30;1.30;;;;;;;28.22;37.45;99115.57;217204;1257;141336;-75
2024/04/09 13:34:26;;;;;;;2.40;1.50;;;;;;;28.18;36.70;99109.06;217391;1259;139727;-74
2024/04/09 13:39:30;;;;;;;5.40;1.90;;;;;;;28.09;36.94;99101.02;217858;1257;139172;-74
2024/04/09 13:44:32;;;;;;;2.80;1.40;;;;;;;28.03;36.80;99094.73;217356;1257;138838;-75
2024/04/09 13:49:34;;;;;;;3.30;2.00;;;;;;;28.03;36.61;99090.42;217466;1259;153565;-72
2024/04/09 13:54:36;;;;;;;3.00;1.70;;;;;;;28.05;36.84;99078.34;217496;1261;139529;-73
2024/04/09 13:59:38;;;;;;;2.90;1.50;;;;;;;28.00;36.60;99082.63;217400;1261;139012;-75
2024/04/09 14:04:40;;;;;;;1.40;1.30;;;;;;;27.85;36.01;99083.86;217742;1259;139326;-74
2024/04/09 14:09:42;;;;;;;1.50;1.40;;;;;;;27.68;35.96;99083.02;217666;1259;139646;-73
2024/04/09 14:14:44;;;;;;;1.50;1.40;;;;;;;27.59;36.04;99080.95;218276;1260;139508;-74
2024/04/09 14:19:46;;;;;;;1.80;1.60;;;;;;;27.55;35.83;99079.17;217624;1256;139731;-75
2024/04/09 14:24:47;;;;;;;3.40;2.10;;;;;;;27.49;35.41;99080.08;217726;1260;139098;-73
2024/04/09 14:29:49;;;;;;;1.90;1.70;;;;;;;27.45;35.18;99074.67;217460;1261;139881;-73
2024/04/09 14:34:51;;;;;;;2.80;2.10;;;;;;;27.41;35.11;99075.46;218359;1260;139915;-70
2024/04/09 14:39:52;;;;;;;3.00;1.60;;;;;;;27.32;34.91;99079.91;218331;1257;140158;-74
2024/04/09 14:44:54;;;;;;;1.80;1.60;;;;;;;27.22;34.59;99081.20;217416;1259;139032;-73
2024/04/09 14:49:56;;;;;;;2.80;1.60;;;;;;;27.11;35.10;99085.30;217486;1258;139371;-72
2024/04/09 14:54:58;;;;;;;3.40;2.20;;;;;;;27.05;35.06;99090.70;217630;1257;140900;-72
2024/04/09 15:00:01;;;;;;;1.90;1.80;;;;;;;26.95;34.78;99085.48;217723;1260;139138;-73
2024/04/09 15:05:02;;;;;;;1.80;1.70;;;;;;;26.94;34.83;99091.52;218217;1257;139628;-74
2024/04/09 15:10:10;;;;;;;2.30;1.60;;;;;;;26.84;34.93;99089.48;217827;1260;139588;-72
2024/04/09 15:15:12;;;;;;;5.70;2.00;;;;;;;26.76;35.22;99090.55;217489;1260;139096;-73
2024/04/09 15:20:13;;;;;;;1.90;1.80;;;;;;;26.63;34.94;99095.41;217526;1260;139790;-74
2024/04/09 15:25:15;;;;;;;1.70;1.60;;;;;;;26.47;34.78;99091.23;217783;1260;139554;-73
2024/04/09 15:30:18;;;;;;;1.60;1.50;;;;;;;26.38;34.59;99092.41;217552;1263;138676;-75
2024/04/09 15:35:19;;;;;;;2.20;2.00;;;;;;;26.29;34.72;99094.54;217718;1260;139040;-73
2024/04/09 15:40:23;;;;;;;2.00;1.80;;;;;;;26.13;34.79;99097.11;217337;1261;138874;-74
2024/04/09 15:45:24;;;;;;;5.60;3.30;;;;;;;25.99;34.68;99095.13;218142;1259;139028;-73
2024/04/09 15:50:26;;;;;;;8.20;2.70;;;;;;;25.86;35.06;99095.57;217366;1263;141185;-75
2024/04/09 15:55:28;;;;;;;3.00;2.00;;;;;;;25.72;34.82;99095.92;217974;1261;139322;-73
2024/04/09 16:00:30;;;;;;;8.70;4.00;;;;;;;25.63;35.28;99097.96;218946;1261;140144;-71
2024/04/09 16:05:32;;;;;;;4.00;3.00;;;;;;;25.56;35.49;99095.63;217919;1257;139481;-74
2024/04/09 16:10:34;;;;;;;3.50;2.70;;;;;;;25.46;35.62;99096.99;217532;1262;138945;-73
2024/04/09 16:15:35;;;;;;;5.60;2.60;;;;;;;25.36;36.08;99097.59;217754;1263;140779;-73
2024/04/09 16:20:38;;;;;;;5.50;2.90;;;;;;;25.22;36.03;99092.30;217960;1257;139485;-72
2024/04/09 16:25:39;;;;;;;3.20;2.80;;;;;;;25.07;36.01;99097.08;217543;1263;139500;-72
2024/04/09 16:30:41;;;;;;;4.10;2.50;;;;;;;24.91;36.19;99102.85;217301;1270;139532;-72
2024/04/09 16:35:43;;;;;;;6.00;2.40;;;;;;;24.80;36.29;99104.91;217429;1260;139183;-72
2024/04/09 16:40:44;;;;;;;4.00;2.80;;;;;;;24.69;36.11;99098.77;217181;1262;139752;-73
2024/04/09 16:45:45;;;;;;;4.20;2.10;;;;;;;24.57;35.96;99101.65;217402;1257;139229;-72
2024/04/09 16:50:47;;;;;;;1.80;1.70;;;;;;;24.44;36.08;99101.89;217452;1258;139941;-73
2024/04/09 16:56:01;;;;;;;7.20;2.70;;;;;;;24.30;36.28;99102.58;217148;1262;140314;-73
2024/04/09 17:01:03;;;;;;;5.10;2.90;;;;;;;24.15;36.88;99108.23;217393;1260;139329;-72
2024/04/09 17:06:05;;;;;;;3.70;2.60;;;;;;;23.99;36.93;99109.58;217420;1258;139484;-71
2024/04/09 17:11:07;;;;;;;5.90;3.00;;;;;;;23.81;37.63;99114.95;217522;1260;139152;-71
2024/04/09 17:16:09;;;;;;;9.70;3.20;;;;;;;23.62;38.17;99124.39;216963;1258;140448;-72
2024/04/09 17:21:11;;;;;;;9.90;4.70;;;;;;;23.38;38.53;99126.81;217087;1257;139486;-71
2024/04/09 17:26:15;;;;;;;9.00;4.40;;;;;;;23.13;38.84;99124.66;217260;1260;139170;-71
2024/04/09 17:31:19;;;;;;;9.50;4.70;;;;;;;22.89;39.72;99131.75;217571;1258;139924;-71
2024/04/09 17:36:23;;;;;;;5.90;4.60;;;;;;;22.65;40.21;99140.95;217076;1260;139390;-71
2024/04/09 17:41:25;;;;;;;14.20;5.30;;;;;;;22.40;41.06;99143.48;218302;1257;139101;-71
2024/04/09 17:46:27;;;;;;;13.80;5.30;;;;;;;22.12;41.76;99144.75;217230;1257;140208;-71
2024/04/09 17:51:29;;;;;;;10.50;4.20;;;;;;;21.91;42.68;99151.22;217406;1260;140872;-70
2024/04/09 17:56:30;;;;;;;10.00;3.60;;;;;;;21.69;43.45;99155.09;217529;1257;139299;-72
2024/04/09 18:01:34;;;;;;;13.40;4.00;;;;;;;21.47;43.93;99163.64;219112;1260;140519;-70
2024/04/09 18:06:36;;;;;;;13.20;4.20;;;;;;;21.26;44.59;99169.83;217398;1257;139350;-69
2024/04/09 18:11:38;;;;;;;11.80;3.60;;;;;;;21.10;44.90;99176.42;217712;1260;139326;-70
2024/04/09 18:16:40;;;;;;;9.20;3.70;;;;;;;20.96;45.70;99181.61;217242;1257;140149;-70
2024/04/09 18:21:42;;;;;;;3.30;2.60;;;;;;;20.85;46.19;99187.20;217356;1260;139604;-70
2024/04/09 18:26:44;;;;;;;9.30;3.00;;;;;;;20.74;46.72;99187.85;218554;1257;140218;-71
2024/04/09 18:31:46;;;;;;;7.50;3.80;;;;;;;20.62;47.30;99191.50;217602;1260;139158;-73
2024/04/09 18:36:48;;;;;;;11.40;3.70;;;;;;;20.45;47.88;99189.89;217826;1258;138729;-73
2024/04/09 18:41:52;;;;;;;8.90;4.80;;;;;;;20.29;48.45;99193.60;217545;1258;139010;-73
2024/04/09 18:46:54;;;;;;;13.90;5.50;;;;;;;20.13;49.19;99203.34;217221;1260;139660;-73
2024/04/09 18:51:56;;;;;;;5.70;3.90;;;;;;;19.99;49.84;99204.20;217488;1261;139097;-72
2024/04/09 18:56:57;;;;;;;13.10;4.80;;;;;;;19.85;50.36;99205.21;217532;1256;158412;-72
2024/04/09 19:02:00;;;;;;;12.60;3.90;;;;;;;19.67;50.82;99214.83;217779;1257;140035;-70
2024/04/09 19:07:04;;;;;;;10.60;4.60;;;;;;;19.53;51.75;99221.27;217538;1257;139287;-72
2024/04/09 19:12:05;;;;;;;8.40;4.30;;;;;;;19.36;52.16;99219.25;217538;1260;139162;-70
2024/04/09 19:17:07;;;;;;;6.20;4.80;;;;;;;19.18;52.38;99223.30;217398;1257;139320;-72
2024/04/09 19:22:10;;;;;;;5.90;4.40;;;;;;;19.02;52.85;99222.05;217608;1260;139463;-71
2024/04/09 19:27:12;;;;;;;10.30;4.40;;;;;;;18.89;53.32;99224.98;217377;1257;139405;-71
2024/04/09 19:32:16;;;;;;;12.80;4.40;;;;;;;18.76;53.71;99228.48;217516;1260;139698;-70
2024/04/09 19:37:22;;;;;;;9.20;5.00;;;;;;;18.62;54.24;99228.71;218286;1257;140110;-71
2024/04/09 19:42:26;;;;;;;5.70;4.40;;;;;;;18.51;54.68;99230.03;217384;1258;139935;-71
2024/04/09 19:47:28;;;;;;;12.90;4.50;;;;;;;18.37;54.89;99234.39;218015;1257;139968;-71
2024/04/09 19:52:31;;;;;;;7.50;5.10;;;;;;;18.26;55.29;99232.92;217349;1257;139040;-71
2024/04/09 19:57:34;;;;;;;9.50;5.60;;;;;;;18.13;55.81;99235.56;218102;1257;139717;-72
2024/04/09 20:02:39;;;;;;;6.90;5.20;;;;;;;18.00;56.55;99241.14;217447;1260;140308;-71
2024/04/09 20:07:41;;;;;;;7.60;4.80;;;;;;;17.87;56.85;99246.25;217721;1257;139885;-71
2024/04/09 20:12:43;;;;;;;4.50;4.10;;;;;;;17.83;57.35;99253.59;217383;1258;140582;-72
2024/04/09 20:17:46;;;;;;;11.00;5.20;;;;;;;17.82;57.51;99258.14;217739;1257;140624;-71
2024/04/09 20:22:48;;;;;;;6.40;4.40;;;;;;;17.82;57.36;99260.40;217512;1259;139862;-71
2024/04/09 20:27:51;;;;;;;9.50;4.50;;;;;;;17.86;57.42;99255.88;218251;1257;141237;-71
2024/04/09 20:32:53;;;;;;;7.60;5.10;;;;;;;17.87;57.49;99251.87;217634;1257;139942;-72
2024/04/09 20:37:56;;;;;;;5.50;4.50;;;;;;;17.87;57.57;99248.31;217541;1256;140019;-72
2024/04/09 20:42:58;;;;;;;6.90;4.20;;;;;;;17.79;57.53;99246.42;217683;1258;139795;-71
2024/04/09 20:48:00;;;;;;;8.50;4.80;;;;;;;17.72;57.73;99249.23;217528;1257;138654;-71
2024/04/09 20:53:04;;;;;;;5.90;5.30;;;;;;;17.63;57.84;99244.58;217645;1258;140373;-71
2024/04/09 20:58:05;;;;;;;13.10;6.10;;;;;;;17.50;58.05;99243.72;217992;1260;139905;-71
2024/04/09 21:03:07;;;;;;;11.10;5.70;;;;;;;17.33;58.46;99242.36;217651;1257;140200;-71
2024/04/09 21:08:11;;;;;;;7.90;5.90;;;;;;;17.13;58.78;99239.59;217397;1257;139920;-72
2024/04/09 21:13:13;;;;;;;6.10;5.30;;;;;;;17.00;59.28;99244.36;217678;1256;139929;-70
2024/04/09 21:18:16;;;;;;;7.00;6.20;;;;;;;16.86;59.79;99252.27;217625;1257;139992;-71
2024/04/09 21:23:18;;;;;;;7.40;5.40;;;;;;;16.74;60.29;99252.42;219581;1256;139727;-71
2024/04/09 21:28:20;;;;;;;9.00;5.40;;;;;;;16.53;60.65;99251.98;218520;1257;139459;-71
2024/04/09 21:33:21;;;;;;;7.10;5.90;;;;;;;16.39;61.01;99252.02;219051;1256;140802;-69
2024/04/09 21:38:23;;;;;;;8.00;4.90;;;;;;;16.26;61.47;99253.85;217392;1256;140414;-71
2024/04/09 21:43:26;;;;;;;7.40;5.70;;;;;;;16.13;61.79;99261.52;217928;1257;139914;-71
2024/04/09 21:48:28;;;;;;;8.30;6.00;;;;;;;15.96;62.01;99263.48;218751;1259;141018;-71
2024/04/09 21:53:30;;;;;;;7.20;6.50;;;;;;;15.85;62.35;99264.27;217659;1257;140632;-70
2024/04/09 21:58:32;;;;;;;10.40;5.30;;;;;;;15.75;62.76;99270.25;218775;1257;140169;-70
2024/04/09 22:03:35;;;;;;;8.00;6.10;;;;;;;15.66;63.03;99274.17;217700;1257;141143;-70
2024/04/09 22:08:37;;;;;;;8.60;6.20;;;;;;;15.58;63.45;99270.57;217586;1257;139899;-71
2024/04/09 22:13:39;;;;;;;8.90;5.80;;;;;;;15.39;63.58;99271.84;218012;1259;140741;-70
2024/04/09 22:18:45;;;;;;;9.60;7.10;;;;;;;15.27;63.98;99276.64;217469;1257;140914;-72
2024/04/09 22:23:47;;;;;;;23.80;12.10;;;;;;;15.11;64.31;99275.54;217421;1257;140239;-72
2024/04/09 22:28:49;;;;;;;30.90;12.70;;;;;;;14.95;64.64;99285.52;217833;1258;141002;-71
2024/04/09 22:33:51;;;;;;;13.70;8.00;;;;;;;14.88;65.13;99287.60;217451;1257;141200;-69
2024/04/09 22:38:54;;;;;;;7.20;6.50;;;;;;;14.80;65.33;99294.70;217170;1257;140447;-70
2024/04/09 22:43:57;;;;;;;6.40;5.80;;;;;;;14.73;65.62;99289.35;217543;1257;140193;-71
2024/04/09 22:48:59;;;;;;;5.90;5.40;;;;;;;14.64;65.95;99289.29;217658;1256;139756;-70
2024/04/09 22:54:02;;;;;;;6.50;3.90;;;;;;;14.59;66.13;99293.27;217746;1256;140459;-71
2024/04/09 22:59:03;;;;;;;8.20;5.40;;;;;;;14.55;66.11;99292.99;217713;1257;140820;-70
2024/04/09 23:04:06;;;;;;;7.70;4.30;;;;;;;14.58;66.44;99300.94;217380;1257;154895;-71
2024/04/09 23:09:11;;;;;;;12.00;6.20;;;;;;;14.57;66.52;99301.46;217449;1257;140857;-70